sensor_id;sensor_type;location;lat;lon;timestamp;temperature;humidity
33988;DHT22;37428;53.580;-1.666;2023-03-14T00:02:14;4.80;92.50
33988;DHT22;37428;53.580;-1.666;2023-03-14T00:05:16;4.70;92.50
33988;DHT22;37428;53.580;-1.666;2023-03-14T00:08:18;4.60;92.50
33988;DHT22;37428;53.580;-1.666;2023-03-14T00:11:23;4.60;92.00
33988;DHT22;37428;53.580;-1.666;2023-03-14T00:14:25;4.50;92.90
33988;DHT22;37428;53.580;-1.666;2023-03-14T00:17:27;4.40;93.90
33988;DHT22;37428;53.580;-1.666;2023-03-14T00:20:29;4.50;94.20
33988;DHT22;37428;53.580;-1.666;2023-03-14T00:23:33;4.40;93.60
33988;DHT22;37428;53.580;-1.666;2023-03-14T00:26:37;4.30;94.10
33988;DHT22;37428;53.580;-1.666;2023-03-14T00:29:39;4.20;93.50
33988;DHT22;37428;53.580;-1.666;2023-03-14T00:32:41;4.10;94.00
33988;DHT22;37428;53.580;-1.666;2023-03-14T00:35:43;4.20;94.60
33988;DHT22;37428;53.580;-1.666;2023-03-14T00:38:47;4.30;95.40
33988;DHT22;37428;53.580;-1.666;2023-03-14T00:41:50;4.30;94.80
33988;DHT22;37428;53.580;-1.666;2023-03-14T00:44:53;4.30;94.20
33988;DHT22;37428;53.580;-1.666;2023-03-14T00:47:55;4.30;94.10
33988;DHT22;37428;53.580;-1.666;2023-03-14T00:50:57;4.20;94.00
33988;DHT22;37428;53.580;-1.666;2023-03-14T00:54:00;4.20;93.50
33988;DHT22;37428;53.580;-1.666;2023-03-14T00:57:03;4.10;93.10
33988;DHT22;37428;53.580;-1.666;2023-03-14T01:00:06;4.00;93.00
33988;DHT22;37428;53.580;-1.666;2023-03-14T01:03:13;4.00;92.70
33988;DHT22;37428;53.580;-1.666;2023-03-14T01:06:17;4.00;92.50
33988;DHT22;37428;53.580;-1.666;2023-03-14T01:09:20;3.90;91.90
33988;DHT22;37428;53.580;-1.666;2023-03-14T01:12:23;3.80;91.30
33988;DHT22;37428;53.580;-1.666;2023-03-14T01:15:25;3.80;92.20
33988;DHT22;37428;53.580;-1.666;2023-03-14T01:18:27;3.80;92.00
33988;DHT22;37428;53.580;-1.666;2023-03-14T01:21:31;3.70;91.70
33988;DHT22;37428;53.580;-1.666;2023-03-14T01:24:34;3.70;91.70
33988;DHT22;37428;53.580;-1.666;2023-03-14T01:27:37;3.60;91.70
33988;DHT22;37428;53.580;-1.666;2023-03-14T01:30:39;3.60;91.70
33988;DHT22;37428;53.580;-1.666;2023-03-14T01:33:41;3.60;91.70
33988;DHT22;37428;53.580;-1.666;2023-03-14T01:36:44;3.40;91.90
33988;DHT22;37428;53.580;-1.666;2023-03-14T01:39:46;3.50;92.10
33988;DHT22;37428;53.580;-1.666;2023-03-14T01:42:56;3.40;92.20
33988;DHT22;37428;53.580;-1.666;2023-03-14T01:46:24;3.50;93.20
33988;DHT22;37428;53.580;-1.666;2023-03-14T01:49:28;3.50;92.10
33988;DHT22;37428;53.580;-1.666;2023-03-14T01:52:33;3.50;92.90
33988;DHT22;37428;53.580;-1.666;2023-03-14T01:55:37;3.50;92.20
33988;DHT22;37428;53.580;-1.666;2023-03-14T01:58:42;3.50;92.90
33988;DHT22;37428;53.580;-1.666;2023-03-14T02:01:47;3.50;93.00
33988;DHT22;37428;53.580;-1.666;2023-03-14T02:04:51;3.40;92.50
33988;DHT22;37428;53.580;-1.666;2023-03-14T02:07:55;3.40;92.80
33988;DHT22;37428;53.580;-1.666;2023-03-14T02:10:58;3.20;92.70
33988;DHT22;37428;53.580;-1.666;2023-03-14T02:14:02;3.20;93.30
33988;DHT22;37428;53.580;-1.666;2023-03-14T02:17:06;3.10;93.10
33988;DHT22;37428;53.580;-1.666;2023-03-14T02:20:23;3.10;93.10
33988;DHT22;37428;53.580;-1.666;2023-03-14T02:23:33;3.00;93.40
33988;DHT22;37428;53.580;-1.666;2023-03-14T02:26:39;3.10;93.40
33988;DHT22;37428;53.580;-1.666;2023-03-14T02:29:49;3.10;92.90
33988;DHT22;37428;53.580;-1.666;2023-03-14T02:32:55;3.00;92.90
33988;DHT22;37428;53.580;-1.666;2023-03-14T02:36:00;3.10;93.10
33988;DHT22;37428;53.580;-1.666;2023-03-14T02:39:08;3.10;92.80
33988;DHT22;37428;53.580;-1.666;2023-03-14T02:42:13;3.00;93.00
33988;DHT22;37428;53.580;-1.666;2023-03-14T02:45:36;3.00;92.70
33988;DHT22;37428;53.580;-1.666;2023-03-14T02:48:39;3.00;92.60
33988;DHT22;37428;53.580;-1.666;2023-03-14T02:51:41;3.00;93.50
33988;DHT22;37428;53.580;-1.666;2023-03-14T02:54:44;2.90;92.70
33988;DHT22;37428;53.580;-1.666;2023-03-14T02:57:46;2.80;92.80
33988;DHT22;37428;53.580;-1.666;2023-03-14T03:00:50;2.80;93.70
33988;DHT22;37428;53.580;-1.666;2023-03-14T03:03:52;2.80;93.60
33988;DHT22;37428;53.580;-1.666;2023-03-14T03:06:54;2.80;93.80
33988;DHT22;37428;53.580;-1.666;2023-03-14T03:09:56;2.80;93.50
33988;DHT22;37428;53.580;-1.666;2023-03-14T03:12:58;2.80;93.60
33988;DHT22;37428;53.580;-1.666;2023-03-14T03:16:02;2.80;93.60
33988;DHT22;37428;53.580;-1.666;2023-03-14T03:19:04;2.80;93.60
33988;DHT22;37428;53.580;-1.666;2023-03-14T03:22:06;2.70;93.30
33988;DHT22;37428;53.580;-1.666;2023-03-14T03:25:09;2.60;93.10
33988;DHT22;37428;53.580;-1.666;2023-03-14T03:28:11;2.60;93.50
33988;DHT22;37428;53.580;-1.666;2023-03-14T03:31:15;2.60;92.60
33988;DHT22;37428;53.580;-1.666;2023-03-14T03:34:17;2.60;93.40
33988;DHT22;37428;53.580;-1.666;2023-03-14T03:37:19;2.50;93.30
33988;DHT22;37428;53.580;-1.666;2023-03-14T03:40:21;2.60;93.90
33988;DHT22;37428;53.580;-1.666;2023-03-14T03:43:23;2.60;94.00
33988;DHT22;37428;53.580;-1.666;2023-03-14T03:46:27;2.70;93.50
33988;DHT22;37428;53.580;-1.666;2023-03-14T03:49:30;2.80;93.00
33988;DHT22;37428;53.580;-1.666;2023-03-14T03:52:31;2.80;92.50
33988;DHT22;37428;53.580;-1.666;2023-03-14T03:55:33;2.80;93.00
33988;DHT22;37428;53.580;-1.666;2023-03-14T03:58:37;2.80;93.50
33988;DHT22;37428;53.580;-1.666;2023-03-14T04:01:41;2.60;92.80
33988;DHT22;37428;53.580;-1.666;2023-03-14T04:04:43;2.70;93.70
33988;DHT22;37428;53.580;-1.666;2023-03-14T04:07:45;2.70;93.70
33988;DHT22;37428;53.580;-1.666;2023-03-14T04:10:47;2.60;92.90
33988;DHT22;37428;53.580;-1.666;2023-03-14T04:13:51;2.60;93.50
33988;DHT22;37428;53.580;-1.666;2023-03-14T04:16:55;2.60;93.70
33988;DHT22;37428;53.580;-1.666;2023-03-14T04:19:57;2.50;94.10
33988;DHT22;37428;53.580;-1.666;2023-03-14T04:22:59;2.60;94.20
33988;DHT22;37428;53.580;-1.666;2023-03-14T04:26:01;2.50;94.30
33988;DHT22;37428;53.580;-1.666;2023-03-14T04:29:03;2.50;93.30
33988;DHT22;37428;53.580;-1.666;2023-03-14T04:32:07;2.40;93.20
33988;DHT22;37428;53.580;-1.666;2023-03-14T04:35:09;2.40;93.30
33988;DHT22;37428;53.580;-1.666;2023-03-14T04:38:12;2.40;93.60
33988;DHT22;37428;53.580;-1.666;2023-03-14T04:41:14;2.40;93.40
33988;DHT22;37428;53.580;-1.666;2023-03-14T04:44:16;2.40;93.60
33988;DHT22;37428;53.580;-1.666;2023-03-14T04:47:19;2.30;93.40
33988;DHT22;37428;53.580;-1.666;2023-03-14T04:50:21;2.30;93.80
33988;DHT22;37428;53.580;-1.666;2023-03-14T04:53:24;2.40;94.30
33988;DHT22;37428;53.580;-1.666;2023-03-14T04:56:26;2.30;93.60
33988;DHT22;37428;53.580;-1.666;2023-03-14T04:59:28;2.30;93.00
33988;DHT22;37428;53.580;-1.666;2023-03-14T05:02:31;2.20;92.80
33988;DHT22;37428;53.580;-1.666;2023-03-14T05:05:33;2.20;92.30
33988;DHT22;37428;53.580;-1.666;2023-03-14T05:08:36;2.20;92.70
33988;DHT22;37428;53.580;-1.666;2023-03-14T05:11:38;2.10;92.80
33988;DHT22;37428;53.580;-1.666;2023-03-14T05:14:40;2.20;93.50
33988;DHT22;37428;53.580;-1.666;2023-03-14T05:17:43;2.30;93.40
33988;DHT22;37428;53.580;-1.666;2023-03-14T05:20:46;2.30;93.20
33988;DHT22;37428;53.580;-1.666;2023-03-14T05:23:48;2.20;92.30
33988;DHT22;37428;53.580;-1.666;2023-03-14T05:26:50;2.10;92.10
33988;DHT22;37428;53.580;-1.666;2023-03-14T05:29:52;2.10;92.10
33988;DHT22;37428;53.580;-1.666;2023-03-14T05:32:55;2.00;91.60
33988;DHT22;37428;53.580;-1.666;2023-03-14T05:35:57;2.00;91.70
33988;DHT22;37428;53.580;-1.666;2023-03-14T05:39:01;2.00;91.90
33988;DHT22;37428;53.580;-1.666;2023-03-14T05:42:04;2.10;91.60
33988;DHT22;37428;53.580;-1.666;2023-03-14T05:45:07;2.10;90.40
33988;DHT22;37428;53.580;-1.666;2023-03-14T05:48:10;2.20;91.40
33988;DHT22;37428;53.580;-1.666;2023-03-14T05:51:13;2.30;90.70
33988;DHT22;37428;53.580;-1.666;2023-03-14T05:54:15;2.20;89.90
33988;DHT22;37428;53.580;-1.666;2023-03-14T05:57:17;2.10;90.30
33988;DHT22;37428;53.580;-1.666;2023-03-14T06:00:20;2.20;90.60
33988;DHT22;37428;53.580;-1.666;2023-03-14T06:03:23;2.10;90.80
33988;DHT22;37428;53.580;-1.666;2023-03-14T06:06:25;2.00;89.80
33988;DHT22;37428;53.580;-1.666;2023-03-14T06:09:27;2.10;90.90
33988;DHT22;37428;53.580;-1.666;2023-03-14T06:12:29;2.10;90.10
33988;DHT22;37428;53.580;-1.666;2023-03-14T06:15:31;2.00;90.30
33988;DHT22;37428;53.580;-1.666;2023-03-14T06:18:36;1.90;90.40
33988;DHT22;37428;53.580;-1.666;2023-03-14T06:21:38;1.90;90.00
33988;DHT22;37428;53.580;-1.666;2023-03-14T06:24:40;1.90;89.90
33988;DHT22;37428;53.580;-1.666;2023-03-14T06:27:42;1.90;89.10
33988;DHT22;37428;53.580;-1.666;2023-03-14T06:30:44;1.90;89.40
33988;DHT22;37428;53.580;-1.666;2023-03-14T06:33:48;1.90;89.30
33988;DHT22;37428;53.580;-1.666;2023-03-14T06:36:50;1.90;89.00
33988;DHT22;37428;53.580;-1.666;2023-03-14T06:39:52;1.90;89.10
33988;DHT22;37428;53.580;-1.666;2023-03-14T06:42:54;1.80;88.60
33988;DHT22;37428;53.580;-1.666;2023-03-14T06:45:56;1.80;88.60
33988;DHT22;37428;53.580;-1.666;2023-03-14T06:49:00;1.80;88.80
33988;DHT22;37428;53.580;-1.666;2023-03-14T06:52:02;1.80;88.40
33988;DHT22;37428;53.580;-1.666;2023-03-14T06:55:04;1.80;88.10
33988;DHT22;37428;53.580;-1.666;2023-03-14T06:58:07;1.70;87.90
33988;DHT22;37428;53.580;-1.666;2023-03-14T07:01:17;1.70;88.20
33988;DHT22;37428;53.580;-1.666;2023-03-14T07:04:23;1.70;87.80
33988;DHT22;37428;53.580;-1.666;2023-03-14T07:07:25;1.70;87.70
33988;DHT22;37428;53.580;-1.666;2023-03-14T07:10:27;1.70;87.20
33988;DHT22;37428;53.580;-1.666;2023-03-14T07:13:29;1.80;87.60
33988;DHT22;37428;53.580;-1.666;2023-03-14T07:16:31;1.70;86.90
33988;DHT22;37428;53.580;-1.666;2023-03-14T07:19:35;1.70;87.30
33988;DHT22;37428;53.580;-1.666;2023-03-14T07:22:38;1.70;88.30
33988;DHT22;37428;53.580;-1.666;2023-03-14T07:25:40;1.80;88.30
33988;DHT22;37428;53.580;-1.666;2023-03-14T07:28:42;1.90;88.50
33988;DHT22;37428;53.580;-1.666;2023-03-14T07:31:44;2.00;88.50
33988;DHT22;37428;53.580;-1.666;2023-03-14T07:34:48;2.10;87.90
33988;DHT22;37428;53.580;-1.666;2023-03-14T07:37:50;2.30;88.10
33988;DHT22;37428;53.580;-1.666;2023-03-14T07:40:58;2.60;87.30
33988;DHT22;37428;53.580;-1.666;2023-03-14T07:44:00;2.60;85.00
33988;DHT22;37428;53.580;-1.666;2023-03-14T07:47:03;2.70;85.50
33988;DHT22;37428;53.580;-1.666;2023-03-14T07:50:07;2.80;84.20
33988;DHT22;37428;53.580;-1.666;2023-03-14T07:53:10;2.90;84.20
33988;DHT22;37428;53.580;-1.666;2023-03-14T07:56:12;3.10;82.80
33988;DHT22;37428;53.580;-1.666;2023-03-14T07:59:14;3.50;82.60
33988;DHT22;37428;53.580;-1.666;2023-03-14T08:02:16;3.80;80.20
33988;DHT22;37428;53.580;-1.666;2023-03-14T08:05:22;4.20;79.60
33988;DHT22;37428;53.580;-1.666;2023-03-14T08:08:24;4.50;76.90
33988;DHT22;37428;53.580;-1.666;2023-03-14T08:11:26;4.70;76.30
33988;DHT22;37428;53.580;-1.666;2023-03-14T08:14:28;4.90;75.50
33988;DHT22;37428;53.580;-1.666;2023-03-14T08:17:31;5.00;75.20
33988;DHT22;37428;53.580;-1.666;2023-03-14T08:20:36;5.00;73.20
33988;DHT22;37428;53.580;-1.666;2023-03-14T08:23:38;4.90;73.70
33988;DHT22;37428;53.580;-1.666;2023-03-14T08:26:40;4.80;71.80
33988;DHT22;37428;53.580;-1.666;2023-03-14T08:29:42;4.50;72.70
33988;DHT22;37428;53.580;-1.666;2023-03-14T08:32:44;4.40;74.80
33988;DHT22;37428;53.580;-1.666;2023-03-14T08:35:47;4.70;75.10
33988;DHT22;37428;53.580;-1.666;2023-03-14T08:38:49;4.90;75.00
33988;DHT22;37428;53.580;-1.666;2023-03-14T08:41:52;4.70;73.20
33988;DHT22;37428;53.580;-1.666;2023-03-14T08:44:54;4.60;74.40
33988;DHT22;37428;53.580;-1.666;2023-03-14T08:47:57;4.50;74.50
33988;DHT22;37428;53.580;-1.666;2023-03-14T08:51:06;4.30;76.20
33988;DHT22;37428;53.580;-1.666;2023-03-14T08:54:10;4.60;76.10
33988;DHT22;37428;53.580;-1.666;2023-03-14T08:57:12;5.10;76.30
33988;DHT22;37428;53.580;-1.666;2023-03-14T09:00:15;5.40;74.30
33988;DHT22;37428;53.580;-1.666;2023-03-14T09:03:17;5.70;72.30
33988;DHT22;37428;53.580;-1.666;2023-03-14T09:06:21;5.70;72.00
33988;DHT22;37428;53.580;-1.666;2023-03-14T09:09:23;5.70;71.40
33988;DHT22;37428;53.580;-1.666;2023-03-14T09:12:25;5.60;70.20
33988;DHT22;37428;53.580;-1.666;2023-03-14T09:15:27;5.70;70.10
33988;DHT22;37428;53.580;-1.666;2023-03-14T09:18:29;6.00;71.20
33988;DHT22;37428;53.580;-1.666;2023-03-14T09:21:32;6.30;68.10
33988;DHT22;37428;53.580;-1.666;2023-03-14T09:24:35;6.30;67.90
33988;DHT22;37428;53.580;-1.666;2023-03-14T09:27:37;6.50;68.00
33988;DHT22;37428;53.580;-1.666;2023-03-14T09:30:39;6.50;64.90
33988;DHT22;37428;53.580;-1.666;2023-03-14T09:33:41;6.80;65.70
33988;DHT22;37428;53.580;-1.666;2023-03-14T09:36:44;7.10;63.90
33988;DHT22;37428;53.580;-1.666;2023-03-14T09:39:46;7.40;62.40
33988;DHT22;37428;53.580;-1.666;2023-03-14T09:42:50;7.60;59.00
33988;DHT22;37428;53.580;-1.666;2023-03-14T09:45:53;7.40;57.60
33988;DHT22;37428;53.580;-1.666;2023-03-14T09:48:55;7.80;61.60
33988;DHT22;37428;53.580;-1.666;2023-03-14T09:52:00;8.00;59.60
33988;DHT22;37428;53.580;-1.666;2023-03-14T09:55:04;8.10;55.70
33988;DHT22;37428;53.580;-1.666;2023-03-14T09:58:11;8.30;56.40
33988;DHT22;37428;53.580;-1.666;2023-03-14T10:01:16;8.70;56.20
33988;DHT22;37428;53.580;-1.666;2023-03-14T10:04:21;8.40;54.00
33988;DHT22;37428;53.580;-1.666;2023-03-14T10:07:29;8.20;55.50
33988;DHT22;37428;53.580;-1.666;2023-03-14T10:10:32;7.80;55.80
33988;DHT22;37428;53.580;-1.666;2023-03-14T10:13:34;7.40;56.90
33988;DHT22;37428;53.580;-1.666;2023-03-14T10:16:40;7.10;54.70
33988;DHT22;37428;53.580;-1.666;2023-03-14T10:19:54;6.80;56.90
33988;DHT22;37428;53.580;-1.666;2023-03-14T10:22:57;6.40;57.70
33988;DHT22;37428;53.580;-1.666;2023-03-14T10:26:05;6.00;57.40
33988;DHT22;37428;53.580;-1.666;2023-03-14T10:29:11;5.80;58.80
33988;DHT22;37428;53.580;-1.666;2023-03-14T10:32:19;5.90;60.90
33988;DHT22;37428;53.580;-1.666;2023-03-14T10:35:23;6.40;61.40
33988;DHT22;37428;53.580;-1.666;2023-03-14T10:38:28;6.20;62.00
33988;DHT22;37428;53.580;-1.666;2023-03-14T10:41:31;6.10;62.40
33988;DHT22;37428;53.580;-1.666;2023-03-14T10:44:34;5.90;65.10
33988;DHT22;37428;53.580;-1.666;2023-03-14T10:47:48;6.10;66.40
33988;DHT22;37428;53.580;-1.666;2023-03-14T10:50:56;6.40;64.60
33988;DHT22;37428;53.580;-1.666;2023-03-14T10:54:01;6.40;63.80
33988;DHT22;37428;53.580;-1.666;2023-03-14T10:57:04;6.20;65.70
33988;DHT22;37428;53.580;-1.666;2023-03-14T11:00:12;5.90;66.60
33988;DHT22;37428;53.580;-1.666;2023-03-14T11:03:16;5.70;67.10
33988;DHT22;37428;53.580;-1.666;2023-03-14T11:06:25;5.30;67.90
33988;DHT22;37428;53.580;-1.666;2023-03-14T11:09:34;5.30;68.70
33988;DHT22;37428;53.580;-1.666;2023-03-14T11:12:44;5.00;69.10
33988;DHT22;37428;53.580;-1.666;2023-03-14T11:15:57;4.70;69.90
33988;DHT22;37428;53.580;-1.666;2023-03-14T11:22:36;4.40;72.10
33988;DHT22;37428;53.580;-1.666;2023-03-14T11:25:46;4.60;73.40
33988;DHT22;37428;53.580;-1.666;2023-03-14T11:28:53;4.90;73.20
33988;DHT22;37428;53.580;-1.666;2023-03-14T11:32:01;4.80;72.30
33988;DHT22;37428;53.580;-1.666;2023-03-14T11:35:17;4.80;73.30
33988;DHT22;37428;53.580;-1.666;2023-03-14T11:38:28;4.80;74.10
33988;DHT22;37428;53.580;-1.666;2023-03-14T11:41:34;4.90;75.50
33988;DHT22;37428;53.580;-1.666;2023-03-14T11:44:38;5.20;74.50
33988;DHT22;37428;53.580;-1.666;2023-03-14T11:47:41;5.40;73.20
33988;DHT22;37428;53.580;-1.666;2023-03-14T11:50:48;5.70;73.40
33988;DHT22;37428;53.580;-1.666;2023-03-14T11:54:00;6.20;73.20
33988;DHT22;37428;53.580;-1.666;2023-03-14T11:57:09;6.80;71.90
33988;DHT22;37428;53.580;-1.666;2023-03-14T12:00:16;7.40;70.90
33988;DHT22;37428;53.580;-1.666;2023-03-14T12:03:26;7.30;67.40
33988;DHT22;37428;53.580;-1.666;2023-03-14T12:06:47;6.90;66.30
33988;DHT22;37428;53.580;-1.666;2023-03-14T12:09:50;6.70;67.10
33988;DHT22;37428;53.580;-1.666;2023-03-14T12:12:54;6.60;68.20
33988;DHT22;37428;53.580;-1.666;2023-03-14T12:15:58;7.20;66.30
33988;DHT22;37428;53.580;-1.666;2023-03-14T12:19:27;7.80;66.80
33988;DHT22;37428;53.580;-1.666;2023-03-14T12:22:32;8.30;64.10
33988;DHT22;37428;53.580;-1.666;2023-03-14T12:25:35;8.50;60.90
33988;DHT22;37428;53.580;-1.666;2023-03-14T12:28:39;9.00;61.40
33988;DHT22;37428;53.580;-1.666;2023-03-14T12:31:45;9.30;59.70
33988;DHT22;37428;53.580;-1.666;2023-03-14T12:34:47;9.50;59.10
33988;DHT22;37428;53.580;-1.666;2023-03-14T12:37:52;9.60;55.60
33988;DHT22;37428;53.580;-1.666;2023-03-14T12:41:00;9.50;56.40
33988;DHT22;37428;53.580;-1.666;2023-03-14T12:44:43;9.70;55.70
33988;DHT22;37428;53.580;-1.666;2023-03-14T12:48:08;9.40;54.90
33988;DHT22;37428;53.580;-1.666;2023-03-14T12:51:13;9.20;55.90
33988;DHT22;37428;53.580;-1.666;2023-03-14T12:54:28;9.10;57.10
33988;DHT22;37428;53.580;-1.666;2023-03-14T12:57:42;8.70;56.30
33988;DHT22;37428;53.580;-1.666;2023-03-14T13:00:54;8.60;55.00
33988;DHT22;37428;53.580;-1.666;2023-03-14T13:03:59;8.80;56.50
33988;DHT22;37428;53.580;-1.666;2023-03-14T13:07:04;9.20;54.60
33988;DHT22;37428;53.580;-1.666;2023-03-14T13:10:18;9.30;53.90
33988;DHT22;37428;53.580;-1.666;2023-03-14T13:13:22;8.80;54.70
33988;DHT22;37428;53.580;-1.666;2023-03-14T13:16:28;8.10;55.40
33988;DHT22;37428;53.580;-1.666;2023-03-14T13:19:31;7.20;59.30
33988;DHT22;37428;53.580;-1.666;2023-03-14T13:22:35;6.30;63.70
33988;DHT22;37428;53.580;-1.666;2023-03-14T13:25:39;5.30;68.60
33988;DHT22;37428;53.580;-1.666;2023-03-14T13:28:41;4.80;73.00
33988;DHT22;37428;53.580;-1.666;2023-03-14T13:31:45;4.60;75.30
33988;DHT22;37428;53.580;-1.666;2023-03-14T13:34:47;4.70;76.90
33988;DHT22;37428;53.580;-1.666;2023-03-14T13:37:56;4.70;77.30
33988;DHT22;37428;53.580;-1.666;2023-03-14T13:41:00;5.00;78.20
33988;DHT22;37428;53.580;-1.666;2023-03-14T13:44:07;5.10;78.10
33988;DHT22;37428;53.580;-1.666;2023-03-14T13:47:15;5.10;77.50
33988;DHT22;37428;53.580;-1.666;2023-03-14T13:50:18;5.10;74.30
33988;DHT22;37428;53.580;-1.666;2023-03-14T13:53:20;5.20;75.30
33988;DHT22;37428;53.580;-1.666;2023-03-14T13:56:23;5.20;75.30
33988;DHT22;37428;53.580;-1.666;2023-03-14T13:59:28;5.30;75.10
33988;DHT22;37428;53.580;-1.666;2023-03-14T14:02:32;5.30;74.00
33988;DHT22;37428;53.580;-1.666;2023-03-14T14:05:35;5.30;72.80
33988;DHT22;37428;53.580;-1.666;2023-03-14T14:08:41;5.30;73.70
33988;DHT22;37428;53.580;-1.666;2023-03-14T14:11:46;5.30;74.90
33988;DHT22;37428;53.580;-1.666;2023-03-14T14:14:51;5.30;73.30
33988;DHT22;37428;53.580;-1.666;2023-03-14T14:17:58;5.40;73.90
33988;DHT22;37428;53.580;-1.666;2023-03-14T14:21:02;5.60;74.00
33988;DHT22;37428;53.580;-1.666;2023-03-14T14:24:07;5.80;73.40
33988;DHT22;37428;53.580;-1.666;2023-03-14T14:27:14;5.80;72.30
33988;DHT22;37428;53.580;-1.666;2023-03-14T14:30:30;5.80;72.60
33988;DHT22;37428;53.580;-1.666;2023-03-14T14:33:41;5.80;72.70
33988;DHT22;37428;53.580;-1.666;2023-03-14T14:36:45;5.50;72.70
33988;DHT22;37428;53.580;-1.666;2023-03-14T14:39:51;5.30;73.30
33988;DHT22;37428;53.580;-1.666;2023-03-14T14:42:55;4.70;75.00
33988;DHT22;37428;53.580;-1.666;2023-03-14T14:46:06;4.30;78.00
33988;DHT22;37428;53.580;-1.666;2023-03-14T14:49:13;4.00;80.30
33988;DHT22;37428;53.580;-1.666;2023-03-14T14:52:17;4.00;81.20
33988;DHT22;37428;53.580;-1.666;2023-03-14T14:55:20;4.00;81.50
33988;DHT22;37428;53.580;-1.666;2023-03-14T14:58:23;4.20;81.50
33988;DHT22;37428;53.580;-1.666;2023-03-14T15:01:31;4.20;81.20
33988;DHT22;37428;53.580;-1.666;2023-03-14T15:04:36;4.20;80.30
33988;DHT22;37428;53.580;-1.666;2023-03-14T15:07:38;4.10;81.70
33988;DHT22;37428;53.580;-1.666;2023-03-14T15:10:40;3.80;82.10
33988;DHT22;37428;53.580;-1.666;2023-03-14T15:13:42;3.60;82.60
33988;DHT22;37428;53.580;-1.666;2023-03-14T15:16:44;3.50;83.40
33988;DHT22;37428;53.580;-1.666;2023-03-14T15:19:48;3.50;84.60
33988;DHT22;37428;53.580;-1.666;2023-03-14T15:22:50;3.50;85.80
33988;DHT22;37428;53.580;-1.666;2023-03-14T15:25:53;3.60;86.70
33988;DHT22;37428;53.580;-1.666;2023-03-14T15:28:55;3.60;86.20
33988;DHT22;37428;53.580;-1.666;2023-03-14T15:31:57;3.70;86.60
33988;DHT22;37428;53.580;-1.666;2023-03-14T15:35:02;3.80;85.60
33988;DHT22;37428;53.580;-1.666;2023-03-14T15:38:04;3.60;84.10
33988;DHT22;37428;53.580;-1.666;2023-03-14T15:41:07;3.70;84.40
33988;DHT22;37428;53.580;-1.666;2023-03-14T15:44:11;3.70;83.70
33988;DHT22;37428;53.580;-1.666;2023-03-14T15:47:13;3.80;84.60
33988;DHT22;37428;53.580;-1.666;2023-03-14T15:50:16;3.90;85.00
33988;DHT22;37428;53.580;-1.666;2023-03-14T15:53:19;4.00;84.40
33988;DHT22;37428;53.580;-1.666;2023-03-14T15:56:36;4.20;84.40
33988;DHT22;37428;53.580;-1.666;2023-03-14T15:59:38;4.20;82.20
33988;DHT22;37428;53.580;-1.666;2023-03-14T16:02:40;4.50;83.00
33988;DHT22;37428;53.580;-1.666;2023-03-14T16:05:44;4.80;81.50
33988;DHT22;37428;53.580;-1.666;2023-03-14T16:08:46;5.00;81.50
33988;DHT22;37428;53.580;-1.666;2023-03-14T16:11:48;5.10;79.50
33988;DHT22;37428;53.580;-1.666;2023-03-14T16:14:50;5.00;79.50
33988;DHT22;37428;53.580;-1.666;2023-03-14T16:17:53;4.90;80.00
33988;DHT22;37428;53.580;-1.666;2023-03-14T16:20:58;4.70;80.00
33988;DHT22;37428;53.580;-1.666;2023-03-14T16:24:02;4.40;79.60
33988;DHT22;37428;53.580;-1.666;2023-03-14T16:27:06;4.20;80.60
33988;DHT22;37428;53.580;-1.666;2023-03-14T16:30:10;4.40;81.50
33988;DHT22;37428;53.580;-1.666;2023-03-14T16:33:13;4.60;80.60
33988;DHT22;37428;53.580;-1.666;2023-03-14T16:36:17;4.40;79.30
33988;DHT22;37428;53.580;-1.666;2023-03-14T16:39:19;4.40;78.80
33988;DHT22;37428;53.580;-1.666;2023-03-14T16:42:21;4.30;79.70
33988;DHT22;37428;53.580;-1.666;2023-03-14T16:45:23;4.20;79.70
33988;DHT22;37428;53.580;-1.666;2023-03-14T16:48:26;4.20;80.20
33988;DHT22;37428;53.580;-1.666;2023-03-14T16:51:30;4.20;80.80
33988;DHT22;37428;53.580;-1.666;2023-03-14T16:54:33;4.10;81.70
33988;DHT22;37428;53.580;-1.666;2023-03-14T16:57:35;4.20;81.20
33988;DHT22;37428;53.580;-1.666;2023-03-14T17:00:38;4.30;80.60
33988;DHT22;37428;53.580;-1.666;2023-03-14T17:03:41;4.20;80.90
33988;DHT22;37428;53.580;-1.666;2023-03-14T17:06:45;4.10;81.60
33988;DHT22;37428;53.580;-1.666;2023-03-14T17:09:48;4.10;81.90
33988;DHT22;37428;53.580;-1.666;2023-03-14T17:12:51;4.10;82.20
33988;DHT22;37428;53.580;-1.666;2023-03-14T17:15:54;4.00;81.60
33988;DHT22;37428;53.580;-1.666;2023-03-14T17:18:56;3.90;82.00
33988;DHT22;37428;53.580;-1.666;2023-03-14T17:22:00;3.90;82.20
33988;DHT22;37428;53.580;-1.666;2023-03-14T17:25:03;3.80;82.30
33988;DHT22;37428;53.580;-1.666;2023-03-14T17:28:05;3.90;82.60
33988;DHT22;37428;53.580;-1.666;2023-03-14T17:31:09;3.80;82.40
33988;DHT22;37428;53.580;-1.666;2023-03-14T17:34:13;3.80;83.00
33988;DHT22;37428;53.580;-1.666;2023-03-14T17:37:17;3.80;82.30
33988;DHT22;37428;53.580;-1.666;2023-03-14T17:40:19;3.70;82.30
33988;DHT22;37428;53.580;-1.666;2023-03-14T17:43:21;3.60;82.40
33988;DHT22;37428;53.580;-1.666;2023-03-14T17:46:23;3.50;82.30
33988;DHT22;37428;53.580;-1.666;2023-03-14T17:49:26;3.40;82.90
33988;DHT22;37428;53.580;-1.666;2023-03-14T17:52:30;3.40;82.90
33988;DHT22;37428;53.580;-1.666;2023-03-14T17:55:32;3.50;83.30
33988;DHT22;37428;53.580;-1.666;2023-03-14T17:58:34;3.30;83.20
33988;DHT22;37428;53.580;-1.666;2023-03-14T18:01:38;3.20;83.40
33988;DHT22;37428;53.580;-1.666;2023-03-14T18:04:41;3.30;83.80
33988;DHT22;37428;53.580;-1.666;2023-03-14T18:07:44;3.30;83.70
33988;DHT22;37428;53.580;-1.666;2023-03-14T18:10:51;3.20;83.30
33988;DHT22;37428;53.580;-1.666;2023-03-14T18:13:53;3.20;83.50
33988;DHT22;37428;53.580;-1.666;2023-03-14T18:16:56;3.10;83.70
33988;DHT22;37428;53.580;-1.666;2023-03-14T18:19:58;3.10;83.60
33988;DHT22;37428;53.580;-1.666;2023-03-14T18:23:03;3.10;83.80
33988;DHT22;37428;53.580;-1.666;2023-03-14T18:26:07;3.20;83.50
33988;DHT22;37428;53.580;-1.666;2023-03-14T18:29:09;3.20;82.70
33988;DHT22;37428;53.580;-1.666;2023-03-14T18:32:15;3.20;82.50
33988;DHT22;37428;53.580;-1.666;2023-03-14T18:35:17;3.20;82.10
33988;DHT22;37428;53.580;-1.666;2023-03-14T18:38:21;3.20;81.70
33988;DHT22;37428;53.580;-1.666;2023-03-14T18:41:24;3.20;82.20
33988;DHT22;37428;53.580;-1.666;2023-03-14T18:44:26;3.20;81.30
33988;DHT22;37428;53.580;-1.666;2023-03-14T18:47:28;3.20;82.30
33988;DHT22;37428;53.580;-1.666;2023-03-14T18:50:31;3.20;81.70
33988;DHT22;37428;53.580;-1.666;2023-03-14T18:53:34;3.20;81.60
33988;DHT22;37428;53.580;-1.666;2023-03-14T18:56:38;3.10;81.40
33988;DHT22;37428;53.580;-1.666;2023-03-14T18:59:41;3.10;81.30
33988;DHT22;37428;53.580;-1.666;2023-03-14T19:02:43;3.10;81.00
33988;DHT22;37428;53.580;-1.666;2023-03-14T19:05:45;3.00;80.60
33988;DHT22;37428;53.580;-1.666;2023-03-14T19:08:57;3.00;80.30
33988;DHT22;37428;53.580;-1.666;2023-03-14T19:11:59;2.90;80.80
33988;DHT22;37428;53.580;-1.666;2023-03-14T19:15:01;2.90;81.20
33988;DHT22;37428;53.580;-1.666;2023-03-14T19:18:04;2.90;80.90
33988;DHT22;37428;53.580;-1.666;2023-03-14T19:21:11;2.90;81.70
33988;DHT22;37428;53.580;-1.666;2023-03-14T19:24:17;2.90;81.30
33988;DHT22;37428;53.580;-1.666;2023-03-14T19:27:19;2.90;81.80